createdAt,value
2022-11-26T00:02:31.252Z,2.40
2022-11-26T00:05:04.374Z,2.85
2022-11-26T00:07:37.452Z,2.20
2022-11-26T00:10:18.743Z,3.20
2022-11-26T00:12:51.384Z,4.18
2022-11-26T00:15:26.046Z,4.03
2022-11-26T00:17:58.454Z,3.30
2022-11-26T00:20:31.382Z,2.40
2022-11-26T00:23:04.628Z,3.83
2022-11-26T00:25:40.343Z,3.05
2022-11-26T00:28:26.215Z,3.00
2022-11-26T00:31:01.304Z,3.00
2022-11-26T00:33:33.942Z,2.35
2022-11-26T00:36:15.237Z,2.15
2022-11-26T00:38:53.567Z,3.95
2022-11-26T00:41:31.100Z,9.30
2022-11-26T00:44:04.075Z,5.32
2022-11-26T00:46:36.411Z,5.53
2022-11-26T00:49:08.781Z,6.03
2022-11-26T00:51:41.322Z,4.32
2022-11-26T00:54:18.104Z,4.13
2022-11-26T00:56:50.528Z,3.53
2022-11-26T00:59:23.262Z,4.00
2022-11-26T01:01:55.687Z,4.60
2022-11-26T01:04:28.204Z,3.67
2022-11-26T01:07:00.694Z,3.80
2022-11-26T01:09:33.777Z,2.92
2022-11-26T01:12:11.524Z,3.55
2022-11-26T01:14:44.286Z,3.90
2022-11-26T01:17:16.640Z,3.88
2022-11-26T01:19:48.997Z,2.72
2022-11-26T01:22:23.175Z,3.97
2022-11-26T01:24:56.221Z,3.35
2022-11-26T01:27:28.611Z,4.22
2022-11-26T01:30:00.966Z,3.55
2022-11-26T01:32:33.318Z,1.58
2022-11-26T01:35:06.506Z,1.85
2022-11-26T01:37:39.188Z,1.90
2022-11-26T01:40:38.634Z,2.67
2022-11-26T01:43:16.905Z,3.05
2022-11-26T01:45:49.335Z,2.45
2022-11-26T01:48:28.206Z,3.78
2022-11-26T01:51:03.589Z,3.87
2022-11-26T01:53:52.217Z,4.07
2022-11-26T01:56:32.551Z,2.75
2022-11-26T01:59:09.610Z,3.08
2022-11-26T02:01:42.082Z,2.25
2022-11-26T02:04:17.369Z,1.80
2022-11-26T02:06:51.273Z,2.47
2022-11-26T02:09:26.101Z,1.75
2022-11-26T02:11:59.214Z,2.65
2022-11-26T02:14:35.465Z,3.05
2022-11-26T02:17:16.110Z,3.17
2022-11-26T02:20:24.401Z,4.50
2022-11-26T02:23:35.124Z,3.35
2022-11-26T02:26:32.887Z,3.40
2022-11-26T02:29:14.609Z,7.00
2022-11-26T02:31:52.668Z,5.78
2022-11-26T02:34:37.192Z,7.25
2022-11-26T02:37:15.890Z,5.93
2022-11-26T02:39:48.329Z,5.38
2022-11-26T02:42:28.025Z,4.45
2022-11-26T02:45:04.166Z,4.50
2022-11-26T02:47:40.712Z,5.05
2022-11-26T02:50:18.262Z,4.75
2022-11-26T02:52:52.831Z,3.88
2022-11-26T02:55:28.871Z,3.72
2022-11-26T02:58:01.692Z,3.55
2022-11-26T03:00:36.564Z,3.78
2022-11-26T03:03:21.678Z,4.43
2022-11-26T03:05:56.739Z,3.17
2022-11-26T03:08:31.222Z,2.70
2022-11-26T03:11:04.403Z,4.00
2022-11-26T03:13:36.867Z,3.72
2022-11-26T03:16:09.284Z,3.92
2022-11-26T03:18:42.413Z,4.30
2022-11-26T03:21:14.777Z,5.00
2022-11-26T03:23:47.199Z,3.25
2022-11-26T03:26:19.565Z,6.50
2022-11-26T03:28:51.997Z,5.03
2022-11-26T03:31:24.373Z,5.93
2022-11-26T03:33:57.429Z,5.85
2022-11-26T03:36:29.816Z,6.28
2022-11-26T03:39:02.185Z,5.60
2022-11-26T03:41:34.548Z,5.55
2022-11-26T03:44:06.906Z,4.88
2022-11-26T03:46:39.329Z,3.95
2022-11-26T03:49:12.381Z,2.72
2022-11-26T03:51:44.762Z,3.38
2022-11-26T03:54:17.148Z,2.53
2022-11-26T03:56:49.532Z,2.00
2022-11-26T03:59:21.942Z,2.83
2022-11-26T04:01:54.355Z,3.00
2022-11-26T04:04:27.607Z,3.58
2022-11-26T04:07:00.849Z,5.78
2022-11-26T04:09:33.316Z,5.53
2022-11-26T04:12:06.071Z,6.45
2022-11-26T04:14:38.726Z,3.85
2022-11-26T04:17:11.727Z,5.18
2022-11-26T04:19:44.713Z,6.55
2022-11-26T04:22:17.112Z,6.55
2022-11-26T04:24:49.470Z,5.20
2022-11-26T04:27:21.848Z,6.78
2022-11-26T04:29:54.408Z,6.80
2022-11-26T04:32:26.780Z,5.05
2022-11-26T04:34:59.843Z,4.65
2022-11-26T04:37:32.214Z,5.45
2022-11-26T04:40:05.824Z,4.20
2022-11-26T04:42:38.205Z,2.60
2022-11-26T04:45:11.326Z,2.83
2022-11-26T04:47:43.705Z,2.55
2022-11-26T04:50:16.859Z,2.75
2022-11-26T04:52:49.212Z,3.67
2022-11-26T04:55:21.582Z,3.58
2022-11-26T04:57:54.330Z,5.57
2022-11-26T05:00:26.884Z,8.35
2022-11-26T05:02:59.309Z,6.50
2022-11-26T05:05:32.386Z,7.20
2022-11-26T05:08:05.161Z,5.40
2022-11-26T05:10:37.635Z,4.88
2022-11-26T05:13:10.273Z,5.13
2022-11-26T05:15:42.621Z,4.72
2022-11-26T05:18:15.028Z,3.28
2022-11-26T05:20:48.080Z,7.55
2022-11-26T05:23:20.467Z,5.57
2022-11-26T05:25:52.942Z,6.80
2022-11-26T05:28:25.345Z,7.78
2022-11-26T05:30:58.792Z,8.20
2022-11-26T05:33:31.593Z,9.20
2022-11-26T05:36:05.198Z,10.02
2022-11-26T05:38:37.641Z,8.60
2022-11-26T05:41:10.025Z,4.80
2022-11-26T05:43:42.420Z,6.63
2022-11-26T05:46:16.286Z,6.57
2022-11-26T05:48:48.816Z,8.10
2022-11-26T05:51:21.904Z,4.40
2022-11-26T05:53:54.192Z,3.78
2022-11-26T05:56:26.588Z,6.00
2022-11-26T05:58:58.889Z,4.65
2022-11-26T06:01:31.326Z,4.38
2022-11-26T06:04:03.990Z,6.03
2022-11-26T06:06:37.129Z,6.22
2022-11-26T06:09:09.472Z,6.13
2022-11-26T06:11:41.937Z,6.25
2022-11-26T06:14:14.378Z,5.75
2022-11-26T06:16:46.951Z,5.32
2022-11-26T06:19:19.495Z,6.80
2022-11-26T06:21:52.616Z,10.30
2022-11-26T06:24:25.010Z,10.70
2022-11-26T06:26:57.451Z,10.75
2022-11-26T06:29:29.799Z,10.65
2022-11-26T06:32:02.338Z,9.85
2022-11-26T06:34:34.710Z,11.70
2022-11-26T06:37:07.760Z,11.77
2022-11-26T06:39:40.102Z,14.15
2022-11-26T06:42:12.516Z,11.18
2022-11-26T06:44:45.795Z,14.23
2022-11-26T06:47:18.171Z,17.38
2022-11-26T06:49:50.675Z,17.65
2022-11-26T06:52:23.720Z,21.65
2022-11-26T06:54:56.084Z,21.48
2022-11-26T06:57:28.490Z,19.88
2022-11-26T07:00:01.164Z,14.25
2022-11-26T07:02:33.668Z,13.48
2022-11-26T07:05:06.449Z,11.90
2022-11-26T07:07:40.093Z,13.90
2022-11-26T07:10:12.523Z,11.77
2022-11-26T07:12:44.975Z,11.32
2022-11-26T07:15:17.451Z,10.30
2022-11-26T07:17:49.873Z,16.05
2022-11-26T07:20:22.229Z,10.38
2022-11-26T07:22:55.263Z,10.00
2022-11-26T07:25:27.608Z,4.90
2022-11-26T07:28:00.051Z,7.20
2022-11-26T07:30:32.379Z,11.93
2022-11-26T07:33:04.844Z,15.60
2022-11-26T07:35:37.771Z,15.05
2022-11-26T07:38:10.748Z,7.00
2022-11-26T07:40:43.158Z,6.07
2022-11-26T07:43:15.553Z,2.70
2022-11-26T07:45:47.969Z,2.72
2022-11-26T07:48:20.371Z,2.05
2022-11-26T07:50:52.777Z,2.25
2022-11-26T07:53:27.910Z,2.25
2022-11-26T07:56:03.080Z,4.03
2022-11-26T07:58:35.421Z,8.60
2022-11-26T08:01:09.124Z,8.45
2022-11-26T08:03:43.497Z,4.80
2022-11-26T08:06:17.654Z,4.32
2022-11-26T08:08:51.157Z,4.78
2022-11-26T08:11:27.671Z,3.55
2022-11-26T08:14:02.308Z,3.35
2022-11-26T08:16:34.863Z,3.75
2022-11-26T08:19:11.084Z,4.53
2022-11-26T08:21:43.468Z,3.88
2022-11-26T08:24:17.961Z,2.67
2022-11-26T08:26:50.383Z,3.95
2022-11-26T08:29:22.702Z,4.57
2022-11-26T08:31:54.995Z,3.58
2022-11-26T08:34:27.350Z,3.85
2022-11-26T08:36:59.727Z,2.42
2022-11-26T08:39:32.913Z,2.65
2022-11-26T08:42:05.345Z,3.17
2022-11-26T08:44:38.043Z,2.90
2022-11-26T08:47:10.643Z,3.00
2022-11-26T08:49:42.981Z,2.95
2022-11-26T08:52:15.505Z,2.67
2022-11-26T08:54:48.798Z,2.90
2022-11-26T08:57:21.425Z,3.75
2022-11-26T08:59:54.454Z,2.53
2022-11-26T09:02:26.946Z,2.97
2022-11-26T09:04:59.251Z,4.82
2022-11-26T09:07:31.672Z,3.00
2022-11-26T09:10:06.438Z,4.05
2022-11-26T09:12:38.855Z,3.42
2022-11-26T09:15:11.292Z,4.90
2022-11-26T09:17:43.659Z,2.90
2022-11-26T09:20:16.152Z,2.97
2022-11-26T09:22:48.494Z,2.53
2022-11-26T09:25:21.510Z,3.17
2022-11-26T09:27:53.801Z,3.13
2022-11-26T09:30:26.136Z,2.75
2022-11-26T09:32:58.512Z,3.20
2022-11-26T09:35:31.139Z,2.88
2022-11-26T09:38:03.497Z,3.35
2022-11-26T09:40:46.154Z,3.28
2022-11-26T09:43:27.939Z,3.03
2022-11-26T09:46:01.010Z,3.03
2022-11-26T09:48:33.963Z,3.08
2022-11-26T09:51:12.505Z,2.78
2022-11-26T09:53:46.998Z,3.38
2022-11-26T09:56:24.322Z,2.95
2022-11-26T09:59:00.964Z,3.38
2022-11-26T10:01:34.319Z,2.05
2022-11-26T10:04:07.245Z,2.55
2022-11-26T10:06:47.064Z,2.22
2022-11-26T10:12:25.813Z,2.65
2022-11-26T10:17:42.171Z,3.00
2022-11-26T10:20:49.394Z,3.35
2022-11-26T10:23:28.826Z,2.13
2022-11-26T10:26:11.339Z,2.30
2022-11-26T10:28:47.029Z,1.92
2022-11-26T10:31:21.769Z,6.07
2022-11-26T10:33:56.949Z,3.10
2022-11-26T10:36:35.167Z,2.67
2022-11-26T10:39:12.371Z,2.10
2022-11-26T10:41:45.071Z,2.30
2022-11-26T10:44:33.156Z,1.80
2022-11-26T10:47:30.225Z,2.03
2022-11-26T10:50:45.995Z,1.70
2022-11-26T10:58:29.698Z,2.08
2022-11-26T11:01:03.846Z,2.20
2022-11-26T11:06:40.390Z,1.45
2022-11-26T11:09:31.572Z,1.63
2022-11-26T11:12:22.146Z,1.63
2022-11-26T11:14:54.595Z,1.33
2022-11-26T11:17:32.780Z,1.90
2022-11-26T11:20:29.211Z,2.10
2022-11-26T11:23:06.089Z,1.55
2022-11-26T11:25:41.234Z,1.98
2022-11-26T11:28:18.319Z,1.55
2022-11-26T11:31:00.167Z,1.77
2022-11-26T11:33:33.316Z,1.83
2022-11-26T11:36:16.650Z,1.88
2022-11-26T11:38:50.990Z,2.50
2022-11-26T11:41:35.339Z,1.80
2022-11-26T11:44:16.315Z,2.17
2022-11-26T11:47:01.258Z,1.90
2022-11-26T11:49:50.348Z,2.33
2022-11-26T11:52:34.456Z,3.58
2022-11-26T11:55:19.329Z,1.80
2022-11-26T11:58:15.743Z,2.28
2022-11-26T12:00:56.339Z,1.90
2022-11-26T12:03:49.711Z,2.20
2022-11-26T12:06:35.967Z,2.03
2022-11-26T12:09:18.966Z,2.70
2022-11-26T12:11:57.650Z,1.92
2022-11-26T12:14:35.990Z,2.15
2022-11-26T12:17:15.871Z,2.90
2022-11-26T12:19:54.392Z,2.42
2022-11-26T12:22:32.818Z,2.63
2022-11-26T12:25:15.723Z,2.28
2022-11-26T12:27:54.640Z,2.22
2022-11-26T12:30:36.583Z,2.20
2022-11-26T12:33:16.486Z,3.08
2022-11-26T12:35:53.251Z,2.80
2022-11-26T12:38:29.962Z,1.88
2022-11-26T12:41:07.392Z,1.67
2022-11-26T12:43:52.879Z,2.05
2022-11-26T12:46:30.869Z,1.85
2022-11-26T12:49:12.645Z,2.30
2022-11-26T12:51:53.964Z,1.92
2022-11-26T12:54:33.399Z,2.00
2022-11-26T12:57:15.179Z,2.15
2022-11-26T12:59:54.939Z,2.67
2022-11-26T13:05:03.110Z,1.73
2022-11-26T13:07:52.544Z,1.88
2022-11-26T13:10:34.076Z,1.70
2022-11-26T13:13:17.492Z,1.98
2022-11-26T13:16:06.449Z,2.13
2022-11-26T13:18:43.164Z,1.75
2022-11-26T13:21:30.614Z,2.30
2022-11-26T13:24:25.265Z,1.98
2022-11-26T13:27:11.985Z,2.00
2022-11-26T13:30:05.088Z,1.70
2022-11-26T13:33:14.172Z,1.25
2022-11-26T13:36:11.904Z,1.67
2022-11-26T13:38:56.515Z,1.85
2022-11-26T13:41:59.091Z,1.92
2022-11-26T13:45:12.249Z,1.60
2022-11-26T13:47:50.202Z,1.67
2022-11-26T13:50:29.214Z,1.73
2022-11-26T13:53:05.925Z,1.67
2022-11-26T13:55:43.976Z,1.52
2022-11-26T13:58:20.733Z,2.40
2022-11-26T14:00:53.894Z,1.65
2022-11-26T14:03:44.140Z,1.67
2022-11-26T14:06:16.519Z,2.22
2022-11-26T14:08:50.562Z,1.98
2022-11-26T14:11:56.053Z,2.75
2022-11-26T14:14:37.127Z,1.80
2022-11-26T14:17:21.774Z,2.55
2022-11-26T14:20:01.486Z,2.20
2022-11-26T14:22:36.558Z,2.60
2022-11-26T14:25:12.210Z,3.03
2022-11-26T14:27:52.834Z,2.22
2022-11-26T14:30:27.278Z,1.95
2022-11-26T14:33:14.089Z,3.30
2022-11-26T14:35:54.262Z,3.70
2022-11-26T14:38:30.785Z,2.55
2022-11-26T14:41:03.130Z,2.03
2022-11-26T14:43:35.457Z,2.22
2022-11-26T14:46:13.497Z,3.08
2022-11-26T14:48:48.391Z,2.70
2022-11-26T14:51:24.298Z,4.20
2022-11-26T14:53:58.457Z,4.03
2022-11-26T14:56:31.252Z,2.65
2022-11-26T14:59:05.522Z,3.25
2022-11-26T15:01:43.951Z,3.35
2022-11-26T15:04:24.507Z,4.25
2022-11-26T15:06:57.944Z,5.30
2022-11-26T15:09:30.329Z,5.82
2022-11-26T15:12:09.937Z,8.95
2022-11-26T15:14:45.966Z,6.95
2022-11-26T15:17:20.625Z,6.25
2022-11-26T15:19:56.986Z,7.50
2022-11-26T15:22:33.739Z,5.72
2022-11-26T15:25:14.404Z,6.97
2022-11-26T15:27:58.180Z,5.78
2022-11-26T15:30:32.327Z,7.75
2022-11-26T15:33:13.163Z,6.35
2022-11-26T15:35:46.522Z,6.18
2022-11-26T15:38:20.163Z,8.38
2022-11-26T15:40:54.894Z,9.35
2022-11-26T15:43:31.946Z,10.25
2022-11-26T15:46:12.292Z,10.82
2022-11-26T15:48:52.874Z,8.75
2022-11-26T15:51:35.141Z,9.90
2022-11-26T15:54:20.056Z,10.10
2022-11-26T15:56:54.993Z,12.90
2022-11-26T15:59:30.077Z,16.08
2022-11-26T16:02:13.509Z,11.15
2022-11-26T16:04:49.399Z,11.43
2022-11-26T16:07:24.352Z,15.05
2022-11-26T16:10:19.420Z,13.05
2022-11-26T16:13:17.168Z,12.57
2022-11-26T16:15:55.779Z,15.70
2022-11-26T16:18:34.664Z,15.85
2022-11-26T16:21:14.154Z,17.43
2022-11-26T16:23:53.166Z,28.45
2022-11-26T16:26:26.095Z,30.40
2022-11-26T16:28:58.381Z,22.77
2022-11-26T16:31:31.635Z,27.83
2022-11-26T16:34:09.226Z,28.95
2022-11-26T16:36:43.133Z,13.75
2022-11-26T16:39:17.189Z,5.90
2022-11-26T16:41:49.474Z,10.70
2022-11-26T16:44:21.874Z,5.72
2022-11-26T16:46:54.314Z,4.20
2022-11-26T16:49:29.338Z,5.25
2022-11-26T16:52:01.598Z,5.40
2022-11-26T16:54:34.570Z,3.70
2022-11-26T16:57:13.967Z,4.88
2022-11-26T16:59:50.598Z,3.83
2022-11-26T17:02:24.083Z,4.82
2022-11-26T17:04:56.473Z,5.20
2022-11-26T17:07:38.616Z,3.95
2022-11-26T17:10:14.540Z,6.15
2022-11-26T17:12:47.050Z,6.18
2022-11-26T17:15:19.427Z,4.28
2022-11-26T17:18:01.779Z,2.92
2022-11-26T17:20:34.090Z,4.95
2022-11-26T17:23:06.411Z,3.97
2022-11-26T17:25:39.431Z,4.20
2022-11-26T17:28:12.683Z,4.18
2022-11-26T17:30:45.300Z,3.90
2022-11-26T17:33:18.479Z,5.45
2022-11-26T17:35:50.956Z,3.97
2022-11-26T17:38:23.306Z,5.82
2022-11-26T17:40:56.308Z,5.22
2022-11-26T17:43:28.652Z,5.10
2022-11-26T17:46:01.740Z,6.00
2022-11-26T17:48:34.082Z,4.22
2022-11-26T17:51:06.549Z,3.65
2022-11-26T17:53:38.879Z,5.35
2022-11-26T17:56:17.780Z,3.67
2022-11-26T17:58:50.458Z,2.93
2022-11-26T18:01:22.849Z,4.78
2022-11-26T18:03:55.265Z,8.45
2022-11-26T18:06:38.150Z,10.43
2022-11-26T18:09:10.482Z,5.78
2022-11-26T18:11:45.867Z,5.00
2022-11-26T18:14:18.693Z,7.50
2022-11-26T18:16:51.720Z,8.02
2022-11-26T18:19:24.102Z,6.82
2022-11-26T18:21:56.822Z,6.85
2022-11-26T18:24:30.446Z,5.97
2022-11-26T18:27:03.696Z,4.63
2022-11-26T18:29:36.123Z,5.47
2022-11-26T18:32:08.438Z,6.03
2022-11-26T18:34:41.040Z,6.60
2022-11-26T18:37:13.362Z,5.75
2022-11-26T18:39:45.833Z,6.90
2022-11-26T18:45:14.225Z,5.95
2022-11-26T18:47:46.578Z,4.93
2022-11-26T18:50:19.297Z,4.35
2022-11-26T18:52:51.667Z,4.07
2022-11-26T18:55:23.972Z,5.15
2022-11-26T18:57:57.106Z,4.82
2022-11-26T19:00:29.446Z,4.72
2022-11-26T19:03:01.834Z,4.57
2022-11-26T19:05:34.164Z,6.22
2022-11-26T19:08:06.890Z,4.97
2022-11-26T19:10:39.620Z,5.28
2022-11-26T19:13:12.909Z,6.20
2022-11-26T19:15:46.031Z,4.55
2022-11-26T19:18:18.325Z,4.63
2022-11-26T19:20:52.317Z,4.60
2022-11-26T19:23:28.010Z,3.58
2022-11-26T19:26:04.559Z,4.03
2022-11-26T19:28:37.567Z,3.30
2022-11-26T19:31:11.682Z,7.63
2022-11-26T19:33:46.738Z,6.72
2022-11-26T19:36:19.765Z,3.80
2022-11-26T19:38:54.924Z,5.68
2022-11-26T19:41:28.328Z,6.53
2022-11-26T19:44:03.348Z,4.60
2022-11-26T19:46:37.439Z,3.95
2022-11-26T19:49:12.110Z,5.57
2022-11-26T19:51:44.617Z,5.40
2022-11-26T19:54:17.444Z,3.90
2022-11-26T19:56:49.773Z,3.28
2022-11-26T19:59:22.781Z,4.35
2022-11-26T20:01:55.174Z,4.97
2022-11-26T20:04:28.916Z,4.28
2022-11-26T20:07:01.354Z,4.00
2022-11-26T20:09:33.951Z,29.90
2022-11-26T20:12:06.613Z,17.23
2022-11-26T20:14:39.634Z,5.45
2022-11-26T20:17:12.039Z,4.20
2022-11-26T20:19:45.181Z,3.42
2022-11-26T20:22:18.213Z,5.25
2022-11-26T20:24:50.638Z,8.65
2022-11-26T20:27:23.447Z,4.18
2022-11-26T20:29:56.426Z,4.38
2022-11-26T20:32:28.732Z,8.20
2022-11-26T20:35:01.085Z,8.65
2022-11-26T20:37:33.411Z,7.80
2022-11-26T20:40:07.086Z,4.78
2022-11-26T20:42:40.149Z,5.40
2022-11-26T20:45:13.586Z,4.22
2022-11-26T20:47:45.887Z,15.02
2022-11-26T20:50:18.360Z,15.32
2022-11-26T20:52:50.700Z,10.52
2022-11-26T20:55:24.422Z,9.30
2022-11-26T20:57:56.780Z,13.02
2022-11-26T21:00:29.775Z,11.13
2022-11-26T21:03:02.161Z,13.15
2022-11-26T21:05:34.615Z,9.20
2022-11-26T21:08:07.233Z,8.68
2022-11-26T21:10:40.477Z,3.60
2022-11-26T21:13:14.507Z,9.73
2022-11-26T21:15:47.534Z,12.93
2022-11-26T21:18:20.396Z,13.07
2022-11-26T21:20:53.334Z,21.52
2022-11-26T21:23:26.478Z,17.10
2022-11-26T21:26:05.071Z,18.70
2022-11-26T21:28:37.768Z,18.45
2022-11-26T21:31:16.348Z,20.60
2022-11-26T21:33:54.670Z,17.48
2022-11-26T21:36:28.163Z,11.02
2022-11-26T21:39:01.301Z,5.93
2022-11-26T21:41:33.914Z,5.35
2022-11-26T21:44:06.338Z,13.32
2022-11-26T21:46:39.471Z,9.30
2022-11-26T21:49:12.121Z,3.85
2022-11-26T21:51:44.513Z,4.28
2022-11-26T21:54:16.914Z,3.58
2022-11-26T21:56:49.262Z,3.13
2022-11-26T21:59:21.556Z,12.95
2022-11-26T22:01:54.830Z,5.28
2022-11-26T22:04:27.211Z,5.13
2022-11-26T22:06:59.641Z,4.22
2022-11-26T22:09:32.555Z,3.63
2022-11-26T22:12:05.532Z,3.63
2022-11-26T22:14:37.947Z,2.97
2022-11-26T22:17:10.973Z,5.10
2022-11-26T22:19:43.310Z,4.15
2022-11-26T22:22:15.694Z,5.30
2022-11-26T22:24:48.603Z,4.55
2022-11-26T22:27:21.043Z,7.50
2022-11-26T22:29:53.388Z,6.93
2022-11-26T22:32:26.423Z,9.35
2022-11-26T22:34:58.847Z,4.55
2022-11-26T22:37:31.190Z,10.02
2022-11-26T22:40:04.240Z,7.07
2022-11-26T22:42:36.618Z,3.95
2022-11-26T22:45:10.865Z,6.53
2022-11-26T22:47:46.474Z,5.22
2022-11-26T22:50:21.954Z,3.92
2022-11-26T22:52:54.283Z,3.45
2022-11-26T22:55:26.613Z,3.55
2022-11-26T22:57:58.941Z,3.60
2022-11-26T23:00:50.095Z,4.45
2022-11-26T23:03:24.854Z,2.85
2022-11-26T23:06:02.330Z,3.65
2022-11-26T23:08:35.507Z,4.35
2022-11-26T23:11:21.222Z,7.30
2022-11-26T23:13:54.184Z,8.73
2022-11-26T23:16:26.850Z,9.05
2022-11-26T23:19:00.094Z,10.90
2022-11-26T23:21:34.645Z,11.43
2022-11-26T23:24:07.534Z,9.02
2022-11-26T23:26:40.856Z,5.63
2022-11-26T23:29:13.622Z,6.15
2022-11-26T23:31:45.988Z,10.77
2022-11-26T23:34:19.110Z,9.95
2022-11-26T23:36:51.449Z,9.90
2022-11-26T23:39:23.786Z,9.23
2022-11-26T23:41:56.138Z,8.90
2022-11-26T23:44:28.504Z,8.95
2022-11-26T23:47:00.850Z,8.18
2022-11-26T23:49:33.956Z,8.20
2022-11-26T23:52:06.465Z,8.65
2022-11-26T23:54:38.772Z,8.55
2022-11-26T23:57:15.020Z,8.50
2022-11-26T23:59:47.662Z,8.20
